Time;durP1;ratioP1;P1;durP2;ratioP2;P2;SDS_P1;SDS_P2;PMS_P1;PMS_P2;Temp;Humidity;BMP_temperature;BMP_pressure;BME280_temperature;BME280_humidity;BME280_pressure;Samples;Min_cycle;Max_cycle;Signal;HPM_P1;HPM_P2
2023/09/03 00:01:32;;;;;;;12.02;10.85;;;13.30;99.90;;;;;;4923509;29;20043;-65
2023/09/03 00:03:58;;;;;;;12.15;10.95;;;13.30;99.90;;;;;;4923535;29;20059;-65
2023/09/03 00:06:23;;;;;;;13.02;9.63;;;13.30;99.90;;;;;;4916355;29;20322;-66
2023/09/03 00:08:49;;;;;;;12.60;10.65;;;13.20;99.90;;;;;;4913413;29;20043;-66
2023/09/03 00:11:15;;;;;;;11.75;10.52;;;13.20;99.90;;;;;;4916242;29;20405;-66
2023/09/03 00:13:43;;;;;;;14.23;10.32;;;13.20;99.90;;;;;;4913977;29;20050;-66
2023/09/03 00:16:09;;;;;;;10.40;9.23;;;13.20;99.90;;;;;;4913459;29;20048;-66
2023/09/03 00:18:36;;;;;;;10.88;9.77;;;13.20;99.90;;;;;;4913534;29;20121;-66
2023/09/03 00:21:05;;;;;;;10.25;9.20;;;13.20;99.90;;;;;;4915156;29;20538;-66
2023/09/03 00:23:31;;;;;;;10.93;9.82;;;13.10;99.90;;;;;;4929333;28;20083;-66
2023/09/03 00:25:58;;;;;;;11.63;9.70;;;13.00;99.90;;;;;;4929399;29;20043;-67
2023/09/03 00:28:24;;;;;;;12.20;9.18;;;13.00;99.90;;;;;;4915184;29;20044;-66
2023/09/03 00:31:05;;;;;;;11.73;10.45;;;12.90;99.90;;;;;;4897013;29;20039;-65
2023/09/03 00:33:31;;;;;;;11.45;10.07;;;13.00;99.90;;;;;;4913130;29;20058;-66
2023/09/03 00:36:00;;;;;;;11.48;10.38;;;13.10;99.90;;;;;;4915674;29;20051;-66
2023/09/03 00:38:25;;;;;;;11.43;10.18;;;13.20;99.90;;;;;;4915953;29;20068;-65
2023/09/03 00:40:51;;;;;;;12.60;10.57;;;13.20;99.90;;;;;;4915877;28;20749;-66
2023/09/03 00:43:17;;;;;;;11.68;10.20;;;13.10;99.90;;;;;;4914826;29;20095;-65
2023/09/03 00:45:45;;;;;;;11.95;10.80;;;13.10;99.90;;;;;;4913470;29;20056;-66
2023/09/03 00:48:14;;;;;;;10.38;9.38;;;13.00;99.90;;;;;;4912976;29;20047;-66
2023/09/03 00:50:41;;;;;;;13.80;11.07;;;13.00;99.90;;;;;;4914741;29;20057;-65
2023/09/03 00:53:08;;;;;;;13.25;11.85;;;13.00;99.90;;;;;;4914087;29;20051;-66
2023/09/03 00:55:34;;;;;;;13.00;11.25;;;13.00;99.90;;;;;;4914537;29;20350;-66
2023/09/03 00:58:00;;;;;;;12.88;11.57;;;13.00;99.90;;;;;;4912684;29;20051;-66
2023/09/03 01:00:27;;;;;;;14.52;10.95;;;13.10;99.90;;;;;;4896755;29;20043;-65
2023/09/03 01:02:56;;;;;;;13.68;12.27;;;13.00;99.90;;;;;;4912717;29;20353;-66
2023/09/03 01:05:21;;;;;;;16.45;12.30;;;13.00;99.90;;;;;;4913335;29;20287;-66
2023/09/03 01:07:48;;;;;;;13.50;11.35;;;12.90;99.90;;;;;;4896763;29;20115;-66
2023/09/03 01:10:16;;;;;;;13.00;11.05;;;12.90;99.90;;;;;;4911969;29;20135;-66
2023/09/03 01:12:59;;;;;;;13.95;12.40;;;12.90;99.90;;;;;;4914666;29;20046;-66
2023/09/03 01:15:38;;;;;;;12.38;11.13;;;12.90;99.90;;;;;;4913793;29;20044;-65
2023/09/03 01:18:23;;;;;;;15.40;12.80;;;12.90;99.90;;;;;;4912652;29;20106;-65
2023/09/03 01:20:58;;;;;;;14.88;13.35;;;12.90;99.90;;;;;;4912621;29;20039;-65
2023/09/03 01:23:37;;;;;;;18.52;14.38;;;12.90;99.90;;;;;;4913767;29;20060;-65
2023/09/03 01:26:15;;;;;;;13.38;12.15;;;12.90;99.90;;;;;;4912479;29;20114;-64
2023/09/03 01:28:42;;;;;;;14.13;12.70;;;12.80;99.90;;;;;;4912694;29;20486;-65
2023/09/03 01:31:16;;;;;;;15.30;13.20;;;12.90;99.90;;;;;;4914146;29;20036;-65
2023/09/03 01:33:44;;;;;;;16.40;13.23;;;12.90;99.90;;;;;;4914674;29;20135;-66
2023/09/03 01:36:11;;;;;;;14.77;13.15;;;12.90;99.90;;;;;;4913085;29;20036;-65
2023/09/03 01:38:38;;;;;;;18.25;12.50;;;12.90;99.90;;;;;;4913287;29;20179;-65
2023/09/03 01:41:04;;;;;;;14.63;12.55;;;12.90;99.90;;;;;;4912627;29;20050;-65
2023/09/03 01:43:30;;;;;;;17.08;13.60;;;12.90;99.90;;;;;;4912439;29;20082;-65
2023/09/03 01:46:37;;;;;;;15.13;13.70;;;12.90;99.90;;;;;;4896793;29;20083;-65
2023/09/03 01:49:23;;;;;;;14.43;13.07;;;12.90;99.90;;;;;;4911893;29;20131;-65
2023/09/03 01:52:00;;;;;;;15.23;12.68;;;12.90;99.90;;;;;;4913048;29;20084;-65
2023/09/03 01:54:30;;;;;;;14.55;12.02;;;12.90;99.90;;;;;;4916339;29;20039;-65
2023/09/03 01:57:05;;;;;;;14.65;12.63;;;12.90;99.90;;;;;;4918229;29;20047;-65
2023/09/03 01:59:51;;;;;;;16.77;12.90;;;12.90;99.90;;;;;;4916704;29;20214;-65
2023/09/03 02:02:18;;;;;;;14.88;12.25;;;13.00;99.90;;;;;;4917345;29;20070;-65
2023/09/03 02:04:44;;;;;;;13.65;12.25;;;12.90;99.90;;;;;;4916150;29;20051;-65
2023/09/03 02:07:09;;;;;;;14.93;13.07;;;13.00;99.90;;;;;;4902953;29;20535;-64
2023/09/03 02:09:35;;;;;;;15.52;12.63;;;12.90;99.90;;;;;;4917704;29;20506;-65
2023/09/03 02:12:01;;;;;;;15.00;13.02;;;12.80;99.90;;;;;;4899794;29;20098;-65
2023/09/03 02:14:28;;;;;;;14.73;13.20;;;12.80;99.90;;;;;;4917682;29;20055;-65
2023/09/03 02:16:54;;;;;;;14.70;13.20;;;12.80;99.90;;;;;;4915745;29;20787;-65
2023/09/03 02:19:20;;;;;;;15.57;13.23;;;12.90;99.90;;;;;;4915603;29;20063;-65
2023/09/03 02:21:46;;;;;;;14.98;13.40;;;12.90;99.90;;;;;;4917444;29;20040;-66
2023/09/03 02:24:12;;;;;;;16.33;14.75;;;12.90;99.90;;;;;;4899894;29;20067;-64
2023/09/03 02:26:41;;;;;;;16.98;13.75;;;12.90;99.90;;;;;;4914545;29;20130;-65
2023/09/03 02:29:08;;;;;;;16.52;14.70;;;12.90;99.90;;;;;;4914165;29;20120;-64
2023/09/03 02:31:33;;;;;;;16.05;14.55;;;12.80;99.90;;;;;;4914454;29;20052;-65
2023/09/03 02:33:59;;;;;;;16.30;14.07;;;12.80;99.90;;;;;;4914550;29;20515;-65
2023/09/03 02:36:25;;;;;;;15.85;14.32;;;12.70;99.90;;;;;;4914277;29;20287;-64
2023/09/03 02:39:04;;;;;;;18.05;14.98;;;12.70;99.90;;;;;;4917301;29;20546;-65
2023/09/03 02:41:30;;;;;;;17.08;15.27;;;12.60;99.90;;;;;;4914165;29;20044;-65
2023/09/03 02:44:01;;;;;;;17.77;14.73;;;12.60;99.90;;;;;;4915907;29;20537;-65
2023/09/03 02:46:27;;;;;;;19.42;15.90;;;12.50;99.90;;;;;;4913713;29;20225;-64
2023/09/03 02:48:53;;;;;;;18.58;16.45;;;12.50;99.90;;;;;;4898457;29;20070;-65
2023/09/03 02:51:19;;;;;;;18.15;16.35;;;12.50;99.90;;;;;;4914051;29;20099;-65
2023/09/03 02:53:46;;;;;;;19.40;17.38;;;12.40;99.90;;;;;;4915626;28;20079;-65
2023/09/03 02:56:13;;;;;;;18.05;16.23;;;12.40;99.90;;;;;;4882886;29;20795;-65
2023/09/03 02:58:39;;;;;;;19.70;17.60;;;12.30;99.90;;;;;;4898026;29;20588;-65
2023/09/03 03:01:07;;;;;;;20.15;17.63;;;12.30;99.90;;;;;;4898198;29;20506;-65
2023/09/03 03:03:33;;;;;;;19.52;17.52;;;12.20;99.90;;;;;;4914672;29;20148;-64
2023/09/03 03:05:59;;;;;;;19.95;17.85;;;12.20;99.90;;;;;;4898536;29;20225;-64
2023/09/03 03:08:25;;;;;;;20.00;18.02;;;12.30;99.90;;;;;;4913721;29;20122;-64
2023/09/03 03:10:50;;;;;;;23.83;18.58;;;12.30;99.90;;;;;;4913828;29;20873;-64
2023/09/03 03:13:16;;;;;;;21.35;18.98;;;12.20;99.90;;;;;;4913761;29;20091;-64
2023/09/03 03:15:42;;;;;;;20.90;18.75;;;12.30;99.90;;;;;;4916547;29;20057;-64
2023/09/03 03:18:08;;;;;;;22.38;19.85;;;12.20;99.90;;;;;;4900107;29;20040;-65
2023/09/03 03:20:34;;;;;;;26.05;21.60;;;12.20;99.90;;;;;;4898903;29;20050;-65
2023/09/03 03:23:00;;;;;;;24.50;21.97;;;12.10;99.90;;;;;;4860604;29;1101490;-65
2023/09/03 03:25:26;;;;;;;22.33;19.67;;;12.10;99.90;;;;;;4899700;29;20399;-65
2023/09/03 03:27:51;;;;;;;23.50;20.80;;;12.00;99.90;;;;;;4914052;29;20031;-64
2023/09/03 03:30:17;;;;;;;22.95;19.90;;;12.00;99.90;;;;;;4899316;29;20175;-64
2023/09/03 03:32:43;;;;;;;25.02;19.50;;;12.00;99.90;;;;;;4916876;29;20121;-65
2023/09/03 03:35:09;;;;;;;22.38;19.98;;;11.90;99.90;;;;;;4914914;29;20118;-64
2023/09/03 03:37:35;;;;;;;24.40;21.13;;;11.80;99.90;;;;;;4898490;29;20047;-65
2023/09/03 03:40:01;;;;;;;25.45;21.58;;;11.90;99.90;;;;;;4916619;29;20040;-65
2023/09/03 03:42:27;;;;;;;23.98;20.30;;;11.80;99.90;;;;;;4900284;29;20118;-66
2023/09/03 03:44:52;;;;;;;26.38;20.77;;;11.90;99.90;;;;;;4898949;29;20043;-65
2023/09/03 03:47:18;;;;;;;22.10;19.80;;;11.90;99.90;;;;;;4914093;29;20043;-65
2023/09/03 03:49:44;;;;;;;26.08;21.38;;;11.90;99.90;;;;;;4898616;29;20532;-65
2023/09/03 03:52:09;;;;;;;23.17;20.67;;;12.00;99.90;;;;;;4914103;29;20522;-65
2023/09/03 03:54:35;;;;;;;22.55;20.17;;;12.00;99.90;;;;;;4914206;29;20043;-65
2023/09/03 03:57:01;;;;;;;25.73;20.50;;;12.00;99.90;;;;;;4913888;29;20246;-65
2023/09/03 03:59:27;;;;;;;22.60;20.27;;;12.10;99.90;;;;;;4915513;29;20297;-65
2023/09/03 04:01:53;;;;;;;22.75;19.83;;;12.10;99.90;;;;;;4900894;29;20132;-65
2023/09/03 04:04:20;;;;;;;23.75;21.35;;;12.20;99.90;;;;;;4898818;29;20061;-65
2023/09/03 04:06:46;;;;;;;25.27;19.13;;;12.20;99.90;;;;;;4915502;29;20043;-65
2023/09/03 04:09:12;;;;;;;20.50;18.33;;;12.10;99.90;;;;;;4897219;29;20129;-65
2023/09/03 04:11:37;;;;;;;20.65;18.45;;;12.20;99.90;;;;;;4913351;29;20066;-65
2023/09/03 04:14:03;;;;;;;23.58;20.92;;;12.30;99.90;;;;;;4913129;29;20094;-65
2023/09/03 04:16:29;;;;;;;24.50;20.65;;;12.20;99.90;;;;;;4883227;29;20043;-65
2023/09/03 04:18:55;;;;;;;23.13;20.45;;;12.30;99.90;;;;;;4898755;29;20051;-65
2023/09/03 04:21:20;;;;;;;25.30;21.70;;;12.20;99.90;;;;;;4913944;29;20487;-65
2023/09/03 04:23:46;;;;;;;28.33;24.23;;;12.20;99.90;;;;;;4900662;29;20055;-65
2023/09/03 04:26:12;;;;;;;24.45;20.90;;;12.10;99.90;;;;;;4915743;29;20091;-65
2023/09/03 04:28:38;;;;;;;23.35;20.92;;;12.10;99.90;;;;;;4898139;29;20036;-65
2023/09/03 04:31:08;;;;;;;21.80;19.55;;;12.10;99.90;;;;;;4898080;29;20841;-65
2023/09/03 04:33:36;;;;;;;22.70;20.08;;;12.20;99.90;;;;;;4913905;29;20150;-65
2023/09/03 04:36:02;;;;;;;23.20;20.70;;;12.20;99.90;;;;;;4913229;29;20114;-65
2023/09/03 04:38:29;;;;;;;22.83;20.55;;;12.10;99.90;;;;;;4912998;29;20039;-65
2023/09/03 04:40:55;;;;;;;23.98;21.42;;;12.20;99.90;;;;;;4913632;29;20411;-65
2023/09/03 04:43:23;;;;;;;23.55;21.15;;;12.10;99.90;;;;;;4915575;29;20400;-65
2023/09/03 04:45:51;;;;;;;22.15;19.85;;;12.00;99.90;;;;;;4913246;29;20040;-63
2023/09/03 04:48:18;;;;;;;23.95;21.27;;;12.10;99.90;;;;;;4913570;29;20855;-65
2023/09/03 04:50:44;;;;;;;26.73;22.23;;;12.10;99.90;;;;;;4913306;29;20099;-65
2023/09/03 04:53:12;;;;;;;25.02;21.52;;;12.10;99.90;;;;;;4913067;29;20071;-66
2023/09/03 04:55:38;;;;;;;25.60;22.25;;;12.00;99.90;;;;;;4915346;29;20280;-65
2023/09/03 04:58:04;;;;;;;26.90;24.05;;;12.20;99.90;;;;;;4899338;29;20094;-66
2023/09/03 05:00:31;;;;;;;27.13;23.20;;;12.00;99.90;;;;;;4915364;29;20578;-65
2023/09/03 05:02:59;;;;;;;26.05;21.42;;;12.00;99.90;;;;;;4913898;29;20051;-66
2023/09/03 05:05:25;;;;;;;26.63;23.83;;;12.00;99.90;;;;;;4915043;29;20626;-66
2023/09/03 05:07:51;;;;;;;24.90;22.08;;;12.00;99.90;;;;;;4897140;29;20367;-66
2023/09/03 05:10:17;;;;;;;20.45;18.42;;;12.00;99.90;;;;;;4913019;29;20529;-66
2023/09/03 05:12:43;;;;;;;23.75;21.27;;;12.00;99.90;;;;;;4913656;29;20082;-66
2023/09/03 05:15:13;;;;;;;20.95;18.83;;;12.10;99.90;;;;;;4913417;29;20488;-66
2023/09/03 05:17:39;;;;;;;22.88;20.45;;;12.20;99.90;;;;;;4913161;29;20111;-66
2023/09/03 05:20:06;;;;;;;22.17;19.80;;;12.20;99.90;;;;;;4896240;29;20853;-66
2023/09/03 05:22:33;;;;;;;21.67;19.45;;;12.40;99.90;;;;;;4913047;29;20051;-67
2023/09/03 05:24:58;;;;;;;22.65;20.55;;;12.30;99.90;;;;;;4899313;29;20051;-67
2023/09/03 05:27:24;;;;;;;22.48;19.48;;;12.50;99.90;;;;;;4911650;29;20281;-66
2023/09/03 05:29:50;;;;;;;22.38;19.98;;;12.50;99.90;;;;;;4912719;29;20052;-65
2023/09/03 05:32:16;;;;;;;21.50;19.30;;;12.60;99.90;;;;;;4913499;29;20466;-66
2023/09/03 05:34:42;;;;;;;23.17;20.23;;;12.80;99.90;;;;;;4912146;29;20032;-66
2023/09/03 05:37:07;;;;;;;20.25;18.20;;;12.70;99.90;;;;;;4912336;29;20112;-66
2023/09/03 05:39:33;;;;;;;22.08;19.55;;;12.80;99.90;;;;;;4898675;29;20047;-66
2023/09/03 05:41:59;;;;;;;19.38;17.48;;;12.90;99.90;;;;;;4913799;29;20078;-66
2023/09/03 05:44:24;;;;;;;20.10;18.05;;;13.00;99.90;;;;;;4913993;29;20043;-66
2023/09/03 05:46:50;;;;;;;18.15;15.48;;;13.30;99.90;;;;;;4912868;29;20533;-66
2023/09/03 05:49:16;;;;;;;16.50;14.98;;;13.60;99.90;;;;;;4912251;29;20129;-66
2023/09/03 05:51:42;;;;;;;13.90;12.55;;;13.80;99.90;;;;;;4865590;29;20050;-66
2023/09/03 05:54:08;;;;;;;12.30;11.00;;;14.10;99.90;;;;;;4913729;29;20040;-66
2023/09/03 05:56:37;;;;;;;11.45;10.50;;;14.30;99.90;;;;;;4896429;29;20437;-65
2023/09/03 05:59:08;;;;;;;11.30;10.13;;;14.60;99.90;;;;;;4912232;29;20179;-66
2023/09/03 06:01:34;;;;;;;11.63;10.30;;;14.50;99.90;;;;;;4911881;29;20043;-65
2023/09/03 06:04:06;;;;;;;10.52;9.23;;;14.60;99.90;;;;;;4895957;29;20058;-66
2023/09/03 06:06:38;;;;;;;9.27;8.32;;;14.50;99.90;;;;;;4912232;29;20207;-66
2023/09/03 06:09:08;;;;;;;11.15;8.98;;;14.60;99.90;;;;;;4911815;29;20039;-66
2023/09/03 06:11:35;;;;;;;12.60;8.50;;;14.60;99.90;;;;;;4912285;29;20122;-66
2023/09/03 06:14:01;;;;;;;8.80;8.05;;;14.70;99.90;;;;;;4911808;29;20048;-66
2023/09/03 06:16:27;;;;;;;8.95;8.07;;;14.90;99.90;;;;;;4911592;29;20082;-65
2023/09/03 06:18:53;;;;;;;9.33;7.90;;;15.00;99.90;;;;;;4913398;29;20562;-66
2023/09/03 06:21:19;;;;;;;8.60;7.22;;;15.20;99.90;;;;;;4896143;29;20505;-65
2023/09/03 06:23:45;;;;;;;8.30;7.35;;;15.30;99.90;;;;;;4895492;29;20073;-65
2023/09/03 06:26:11;;;;;;;8.07;7.35;;;15.50;99.90;;;;;;4911648;29;20070;-65
2023/09/03 06:28:36;;;;;;;7.53;6.80;;;15.70;99.90;;;;;;4911826;29;20047;-66
2023/09/03 06:31:03;;;;;;;6.70;6.10;;;15.90;99.90;;;;;;4882602;29;20075;-65
2023/09/03 06:33:28;;;;;;;6.63;5.90;;;16.20;99.90;;;;;;4896113;29;20047;-65
2023/09/03 06:35:54;;;;;;;6.88;5.70;;;16.20;99.90;;;;;;4912404;29;20059;-64
2023/09/03 06:38:20;;;;;;;5.35;4.88;;;16.30;99.90;;;;;;4913255;29;20040;-65
2023/09/03 06:40:47;;;;;;;6.45;5.85;;;16.40;99.90;;;;;;4883797;29;20043;-64
2023/09/03 06:43:13;;;;;;;5.25;4.78;;;16.60;99.90;;;;;;4916767;29;20424;-65
2023/09/03 06:45:38;;;;;;;5.13;4.43;;;16.70;99.90;;;;;;4918602;29;20065;-65
2023/09/03 06:48:04;;;;;;;5.30;4.80;;;17.10;99.90;;;;;;4916790;29;20087;-65
2023/09/03 06:50:30;;;;;;;5.05;4.30;;;17.20;99.90;;;;;;4918004;29;20332;-65
2023/09/03 06:52:56;;;;;;;6.78;4.15;;;17.30;99.90;;;;;;4900198;29;20051;-65
2023/09/03 06:55:21;;;;;;;4.85;4.10;;;17.50;99.90;;;;;;4914727;29;20527;-65
2023/09/03 06:57:47;;;;;;;5.97;5.15;;;17.60;99.90;;;;;;4899216;29;20291;-65
2023/09/03 07:00:13;;;;;;;4.22;3.83;;;17.70;99.90;;;;;;4883052;29;20296;-65
2023/09/03 07:02:39;;;;;;;4.38;3.70;;;18.00;99.90;;;;;;4915087;29;20055;-65
2023/09/03 07:05:05;;;;;;;3.50;3.20;;;18.20;99.90;;;;;;4915077;29;20427;-65
2023/09/03 07:07:30;;;;;;;4.25;3.10;;;18.40;99.90;;;;;;4914433;29;20265;-65
2023/09/03 07:09:57;;;;;;;3.88;3.58;;;18.50;99.90;;;;;;4914734;29;20305;-64
2023/09/03 07:12:24;;;;;;;3.40;3.10;;;18.70;99.90;;;;;;4899468;29;20048;-64
2023/09/03 07:14:49;;;;;;;5.28;3.00;;;18.90;99.90;;;;;;4914147;29;20074;-64
2023/09/03 07:17:15;;;;;;;3.20;2.90;;;19.00;99.90;;;;;;4916547;29;20044;-65
2023/09/03 07:19:41;;;;;;;4.72;3.00;;;19.10;99.90;;;;;;4913525;29;20517;-64
2023/09/03 07:22:06;;;;;;;3.67;3.03;;;19.10;99.90;;;;;;4914596;29;20063;-64
2023/09/03 07:24:33;;;;;;;2.95;2.50;;;19.20;99.90;;;;;;4898700;29;20301;-65
2023/09/03 07:26:59;;;;;;;3.60;2.90;;;19.30;99.90;;;;;;4914747;29;20090;-65
2023/09/03 07:29:25;;;;;;;2.92;2.60;;;19.50;99.90;;;;;;4898926;29;20431;-64
2023/09/03 07:31:50;;;;;;;3.78;2.97;;;19.50;99.90;;;;;;4914338;29;20047;-65
2023/09/03 07:34:16;;;;;;;3.83;2.75;;;19.30;99.90;;;;;;4914163;29;20135;-65
2023/09/03 07:36:42;;;;;;;3.58;2.38;;;19.10;99.90;;;;;;4898802;29;20048;-64
2023/09/03 07:39:09;;;;;;;5.63;3.03;;;19.10;99.90;;;;;;4898848;29;20048;-67
2023/09/03 07:41:36;;;;;;;3.58;2.38;;;19.10;99.90;;;;;;4901171;29;20069;-64
2023/09/03 07:44:02;;;;;;;2.97;2.50;;;19.30;99.90;;;;;;4898457;29;20043;-65
2023/09/03 07:46:28;;;;;;;6.85;2.97;;;19.30;99.90;;;;;;4898888;29;20134;-65
2023/09/03 07:48:54;;;;;;;2.58;2.38;;;19.10;99.90;;;;;;4914813;29;20046;-66
2023/09/03 07:51:20;;;;;;;4.32;2.22;;;19.10;99.90;;;;;;4911708;29;20533;-65
2023/09/03 07:53:47;;;;;;;3.00;2.60;;;19.30;99.90;;;;;;4899249;29;20047;-65
2023/09/03 07:56:14;;;;;;;2.50;2.15;;;19.40;99.90;;;;;;4915895;29;20043;-66
2023/09/03 07:58:39;;;;;;;2.67;2.47;;;19.50;99.90;;;;;;4898684;29;20134;-65
2023/09/03 08:01:05;;;;;;;5.32;2.30;;;19.40;99.90;;;;;;4915087;29;20159;-65
2023/09/03 08:03:33;;;;;;;3.97;2.53;;;19.50;99.90;;;;;;4914073;29;20054;-66
2023/09/03 08:06:00;;;;;;;2.92;2.00;;;19.60;99.90;;;;;;4914856;29;20329;-64
2023/09/03 08:08:26;;;;;;;3.75;2.38;;;19.70;99.90;;;;;;4914218;29;20620;-64
2023/09/03 08:10:52;;;;;;;3.75;2.03;;;19.90;99.90;;;;;;4915342;29;20047;-64
2023/09/03 08:13:18;;;;;;;2.67;2.15;;;20.10;99.90;;;;;;4915523;29;20043;-64
2023/09/03 08:15:43;;;;;;;4.47;2.42;;;20.30;99.90;;;;;;4914077;29;20047;-65
2023/09/03 08:18:09;;;;;;;3.22;1.60;;;20.30;99.90;;;;;;4915369;29;20051;-65
2023/09/03 08:20:35;;;;;;;3.90;1.50;;;20.40;99.90;;;;;;4915167;29;20843;-65
2023/09/03 08:23:01;;;;;;;2.67;1.90;;;20.70;99.90;;;;;;4918006;29;20522;-65
2023/09/03 08:25:28;;;;;;;2.97;1.90;;;20.90;99.90;;;;;;4915132;28;20094;-65
2023/09/03 08:27:53;;;;;;;2.33;2.00;;;20.90;99.90;;;;;;4913577;29;20051;-65
2023/09/03 08:30:19;;;;;;;3.75;1.70;;;21.00;99.90;;;;;;4897734;29;20533;-66
2023/09/03 08:32:45;;;;;;;3.08;2.08;;;21.30;99.90;;;;;;4913222;29;20043;-64
2023/09/03 08:35:10;;;;;;;4.13;2.08;;;21.30;99.90;;;;;;4914348;29;20158;-64
2023/09/03 08:37:36;;;;;;;3.35;1.90;;;21.10;99.90;;;;;;4896416;29;20412;-64
2023/09/03 08:40:02;;;;;;;2.92;2.00;;;21.00;99.90;;;;;;4895893;29;20381;-64
2023/09/03 08:42:29;;;;;;;2.58;1.50;;;21.00;99.90;;;;;;4912055;29;20078;-64
2023/09/03 08:45:03;;;;;;;3.50;1.33;;;21.30;98.60;;;;;;4895857;29;20047;-64
2023/09/03 08:47:30;;;;;;;1.83;1.05;;;21.70;88.00;;;;;;4918269;29;20078;-66
2023/09/03 08:49:57;;;;;;;3.17;1.10;;;22.10;91.20;;;;;;4914043;29;20130;-64
2023/09/03 08:52:23;;;;;;;3.85;1.58;;;22.20;77.90;;;;;;4914995;29;20046;-65
2023/09/03 08:54:50;;;;;;;2.65;1.30;;;22.60;65.60;;;;;;4914823;29;20040;-65
2023/09/03 08:57:16;;;;;;;2.20;1.00;;;23.10;44.30;;;;;;4899893;29;20590;-64
2023/09/03 08:59:41;;;;;;;2.88;0.95;;;23.30;28.10;;;;;;4914269;29;20051;-64
2023/09/03 09:02:11;;;;;;;2.97;1.08;;;23.60;17.80;;;;;;4914729;29;20043;-63
2023/09/03 09:04:37;;;;;;;1.73;0.95;;;24.00;5.00;;;;;;4913887;29;20055;-63
2023/09/03 09:07:05;;;;;;;1.25;0.52;;;23.80;1.00;;;;;;4914587;29;20047;-64
2023/09/03 09:09:32;;;;;;;2.28;0.80;;;24.00;1.00;;;;;;4913936;29;20165;-65
2023/09/03 09:12:11;;;;;;;3.67;0.80;;;24.00;1.00;;;;;;4912606;29;20086;-64
2023/09/03 09:15:04;;;;;;;1.60;0.60;;;23.90;1.00;;;;;;4913388;29;20043;-64
2023/09/03 09:17:37;;;;;;;;;;;23.90;1.00;;;;;;4913137;29;20032;-64
2023/09/03 09:20:04;;;;;;;1.70;0.50;;;23.70;1.00;;;;;;4911854;29;19978;-65
2023/09/03 09:22:30;;;;;;;1.58;0.50;;;23.60;1.00;;;;;;4920847;29;20055;-65
2023/09/03 09:24:55;;;;;;;1.35;0.52;;;23.70;1.00;;;;;;4923460;29;20059;-64
2023/09/03 09:27:22;;;;;;;2.22;0.60;;;23.70;1.00;;;;;;4919321;29;20148;-65
2023/09/03 09:29:48;;;;;;;2.85;0.55;;;23.70;1.00;;;;;;4918960;29;20082;-65
2023/09/03 09:32:24;;;;;;;2.60;0.40;;;23.80;1.00;;;;;;4918415;29;20040;-65
2023/09/03 09:34:50;;;;;;;1.95;0.40;;;24.00;1.00;;;;;;4900327;29;20054;-68
2023/09/03 09:37:16;;;;;;;2.00;0.40;;;23.80;1.00;;;;;;4932904;28;20043;-66
2023/09/03 09:39:49;;;;;;;0.90;0.32;;;23.80;1.00;;;;;;4920858;29;20596;-65
2023/09/03 09:42:18;;;;;;;2.55;0.50;;;23.50;1.00;;;;;;4919084;29;20066;-64
2023/09/03 09:44:50;;;;;;;2.08;0.40;;;23.20;1.00;;;;;;4919060;29;20094;-65
2023/09/03 09:47:17;;;;;;;2.30;0.40;;;23.60;1.00;;;;;;4917794;29;20078;-66
2023/09/03 09:49:45;;;;;;;1.33;0.40;;;23.80;1.00;;;;;;4917095;29;20287;-65
2023/09/03 09:52:12;;;;;;;2.42;0.50;;;23.80;1.00;;;;;;4898494;29;20056;-65
2023/09/03 09:54:45;;;;;;;1.90;0.50;;;23.80;1.00;;;;;;4928620;28;20103;-66
2023/09/03 09:57:12;;;;;;;2.35;0.50;;;24.00;1.00;;;;;;4914576;29;20056;-65
2023/09/03 09:59:39;;;;;;;2.20;0.38;;;24.20;1.00;;;;;;4913692;29;20055;-65
2023/09/03 10:02:16;;;;;;;2.03;0.40;;;24.10;1.00;;;;;;4914010;29;20458;-65
2023/09/03 10:04:46;;;;;;;1.30;0.30;;;24.30;1.00;;;;;;4898614;29;21110;-66
2023/09/03 10:07:13;;;;;;;1.27;0.30;;;24.40;1.00;;;;;;4915091;29;20043;-65
2023/09/03 10:09:40;;;;;;;1.40;0.38;;;24.40;1.00;;;;;;4915775;29;20047;-65
2023/09/03 10:12:08;;;;;;;1.70;0.30;;;24.80;1.00;;;;;;4915433;29;20675;-65
2023/09/03 10:14:34;;;;;;;1.80;0.30;;;25.30;1.00;;;;;;4923269;29;20096;-65
2023/09/03 10:17:03;;;;;;;2.53;0.35;;;25.30;1.00;;;;;;4925793;29;20497;-65
2023/09/03 10:19:49;;;;;;;2.63;0.40;;;25.00;1.00;;;;;;4919615;29;20043;-65
2023/09/03 10:22:18;;;;;;;2.60;0.45;;;25.40;1.00;;;;;;4921696;29;20094;-66
2023/09/03 10:24:48;;;;;;;2.13;0.40;;;25.40;1.00;;;;;;4917600;28;20051;-65
2023/09/03 10:27:19;;;;;;;2.17;0.40;;;25.10;1.00;;;;;;4918238;29;20079;-64
2023/09/03 10:29:47;;;;;;;2.67;0.50;;;25.00;1.00;;;;;;4916903;29;20043;-63
2023/09/03 10:32:15;;;;;;;1.95;0.32;;;25.30;1.00;;;;;;4916478;29;20044;-64
2023/09/03 10:34:42;;;;;;;1.13;0.20;;;25.50;1.00;;;;;;4918070;29;20048;-67
2023/09/03 10:37:12;;;;;;;1.23;0.30;;;25.70;1.00;;;;;;4901440;29;20663;-66
2023/09/03 10:39:45;;;;;;;1.65;0.30;;;25.80;1.00;;;;;;4918213;29;20110;-65
2023/09/03 10:42:29;;;;;;;1.35;0.30;;;25.50;1.00;;;;;;4901236;29;21122;-66
2023/09/03 10:44:57;;;;;;;1.23;0.30;;;25.50;1.00;;;;;;4902472;29;20054;-66
2023/09/03 10:47:23;;;;;;;2.33;0.47;;;25.50;1.00;;;;;;4934047;28;20050;-67
2023/09/03 10:49:51;;;;;;;1.98;0.30;;;25.30;1.00;;;;;;4900866;29;20660;-67
2023/09/03 10:52:27;;;;;;;1.00;0.30;;;25.10;1.00;;;;;;4917267;29;20058;-66
2023/09/03 10:55:14;;;;;;;1.83;0.30;;;25.30;1.00;;;;;;4918903;29;20152;-65
2023/09/03 10:57:40;;;;;;;2.20;0.30;;;25.20;1.00;;;;;;4916557;29;20052;-67
2023/09/03 11:00:07;;;;;;;3.00;0.40;;;25.60;1.00;;;;;;4916239;29;20032;-67
2023/09/03 11:02:35;;;;;;;2.80;0.30;;;26.00;1.00;;;;;;4918431;29;20035;-67
2023/09/03 11:05:14;;;;;;;2.15;0.50;;;26.00;1.00;;;;;;4917004;29;20138;-64
2023/09/03 11:07:44;;;;;;;1.25;0.30;;;26.10;1.00;;;;;;4915640;29;20154;-64
2023/09/03 11:10:27;;;;;;;1.63;0.30;;;25.70;1.00;;;;;;4916976;29;20056;-65
2023/09/03 11:12:54;;;;;;;1.00;0.40;;;25.60;1.00;;;;;;4899409;29;20054;-64
2023/09/03 11:15:20;;;;;;;1.88;0.20;;;25.60;1.00;;;;;;4900866;29;20675;-65
2023/09/03 11:17:54;;;;;;;1.80;0.35;;;25.50;1.00;;;;;;4900319;29;20047;-64
2023/09/03 11:20:33;;;;;;;0.98;0.40;;;25.60;1.00;;;;;;4915456;29;20192;-64
2023/09/03 11:23:00;;;;;;;1.20;0.30;;;25.70;1.00;;;;;;4917493;29;20063;-66
2023/09/03 11:25:34;;;;;;;2.05;0.80;;;25.70;1.00;;;;;;4917073;29;20055;-64
2023/09/03 11:28:00;;;;;;;3.40;1.63;;;25.60;1.00;;;;;;4917020;29;20067;-64
2023/09/03 11:30:25;;;;;;;1.00;0.30;;;25.70;1.00;;;;;;4916564;29;20035;-64
2023/09/03 11:32:51;;;;;;;2.42;1.27;;;26.40;1.00;;;;;;4900433;29;20051;-65
2023/09/03 11:35:17;;;;;;;1.80;0.52;;;26.60;1.00;;;;;;4933155;28;20055;-65
2023/09/03 11:37:42;;;;;;;5.05;3.72;;;27.00;1.00;;;;;;4901801;29;20721;-66
2023/09/03 11:40:09;;;;;;;3.05;0.82;;;27.30;1.00;;;;;;4920896;29;20052;-66
2023/09/03 11:42:35;;;;;;;1.23;0.70;;;26.70;1.00;;;;;;4919102;29;20494;-66
2023/09/03 11:45:04;;;;;;;2.78;1.30;;;26.70;1.00;;;;;;4918086;29;20103;-65
2023/09/03 11:47:37;;;;;;;4.10;3.15;;;26.40;1.00;;;;;;4916446;29;20426;-64
2023/09/03 11:50:16;;;;;;;1.50;0.40;;;26.30;1.00;;;;;;4917547;29;20541;-64
2023/09/03 11:52:49;;;;;;;2.75;0.45;;;26.30;1.00;;;;;;4918452;29;20055;-64
2023/09/03 11:55:15;;;;;;;1.85;0.30;;;26.80;1.00;;;;;;4917500;29;20099;-65
2023/09/03 11:57:43;;;;;;;1.02;0.40;;;27.30;1.00;;;;;;4919181;28;20055;-66
2023/09/03 12:00:12;;;;;;;1.38;0.30;;;27.50;1.00;;;;;;4917906;29;20052;-66
2023/09/03 12:02:39;;;;;;;1.90;0.30;;;28.10;1.00;;;;;;4917479;29;20047;-65
2023/09/03 12:05:06;;;;;;;2.35;0.32;;;28.10;1.00;;;;;;4918985;29;20094;-65
2023/09/03 12:07:31;;;;;;;1.73;0.30;;;27.60;1.00;;;;;;4917241;29;20083;-66
2023/09/03 12:09:57;;;;;;;1.08;0.40;;;26.80;1.00;;;;;;4916625;29;21276;-66
2023/09/03 12:12:23;;;;;;;1.80;0.40;;;26.90;1.00;;;;;;4915685;29;20043;-66
2023/09/03 12:14:48;;;;;;;1.30;0.40;;;27.10;1.00;;;;;;4902187;29;20050;-66
2023/09/03 12:17:27;;;;;;;1.17;0.30;;;26.70;1.00;;;;;;4921811;29;20442;-65
2023/09/03 12:19:53;;;;;;;1.77;0.30;;;26.10;1.00;;;;;;4906202;29;20051;-65
2023/09/03 12:22:21;;;;;;;1.70;0.35;;;25.90;1.00;;;;;;4921343;29;20047;-65
2023/09/03 12:24:47;;;;;;;2.47;0.30;;;25.90;1.00;;;;;;4922610;29;20055;-64
2023/09/03 12:27:13;;;;;;;1.15;0.20;;;26.90;1.00;;;;;;4924819;29;20063;-65
2023/09/03 12:29:39;;;;;;;2.03;0.40;;;27.00;1.00;;;;;;4925427;29;20070;-66
2023/09/03 12:32:07;;;;;;;2.15;0.30;;;26.60;1.00;;;;;;4921538;29;20467;-63
2023/09/03 12:34:34;;;;;;;1.77;0.30;;;26.10;1.00;;;;;;4924329;29;20086;-64
2023/09/03 12:37:00;;;;;;;2.10;0.30;;;25.50;1.00;;;;;;4924769;29;20806;-65
2023/09/03 12:39:29;;;;;;;1.75;0.32;;;25.00;1.00;;;;;;4942150;28;20055;-66
2023/09/03 12:41:55;;;;;;;3.08;0.45;;;25.50;1.00;;;;;;4924282;29;20048;-65
2023/09/03 12:44:21;;;;;;;1.52;0.40;;;26.30;1.00;;;;;;4925856;29;20046;-65